createdAt,value
2019-04-14T00:03:07.055Z,17.23
2019-04-14T00:08:13.417Z,17.67
2019-04-14T00:13:19.594Z,17.20
2019-04-14T00:18:25.183Z,20.63
2019-04-14T00:23:30.623Z,20.80
2019-04-14T00:34:24.513Z,23.13
2019-04-14T00:39:33.644Z,21.87
2019-04-14T00:44:45.245Z,26.02
2019-04-14T00:49:50.997Z,24.57
2019-04-14T00:54:56.546Z,27.50
2019-04-14T01:00:02.088Z,23.37
2019-04-14T01:05:08.923Z,27.73
2019-04-14T01:10:15.053Z,29.13
2019-04-14T01:15:20.537Z,29.60
2019-04-14T01:20:26.064Z,24.53
2019-04-14T01:25:32.434Z,21.60
2019-04-14T01:30:39.359Z,21.50
2019-04-14T01:35:44.965Z,24.20
2019-04-14T01:40:51.008Z,24.23
2019-04-14T01:46:07.216Z,20.93
2019-04-14T01:51:11.387Z,25.77
2019-04-14T01:56:27.794Z,26.33
2019-04-14T02:01:34.615Z,23.40
2019-04-14T02:06:40.252Z,22.20
2019-04-14T02:11:46.618Z,24.90
2019-04-14T02:16:56.103Z,22.37
2019-04-14T02:22:00.535Z,21.93
2019-04-14T02:27:06.211Z,23.90
2019-04-14T02:37:54.485Z,21.70
2019-04-14T02:42:54.746Z,22.90
2019-04-14T02:48:20.467Z,21.60
2019-04-14T02:53:18.081Z,20.37
2019-04-14T02:58:20.499Z,16.80
2019-04-14T03:08:39.794Z,17.77
2019-04-14T03:13:41.166Z,15.87
2019-04-14T03:29:23.376Z,22.13
2019-04-14T03:49:45.400Z,21.53
2019-04-14T03:54:52.634Z,16.65
2019-04-14T03:59:37.674Z,17.43
2019-04-14T04:04:43.046Z,20.20
2019-04-14T04:09:54.123Z,20.63
2019-04-14T04:14:59.754Z,15.13
2019-04-14T04:20:17.411Z,15.60
2019-04-14T04:25:28.996Z,18.20
2019-04-14T04:30:42.669Z,16.80
2019-04-14T04:35:56.264Z,17.20
2019-04-14T04:41:02.017Z,17.37
2019-04-14T04:46:07.504Z,18.50
2019-04-14T04:51:13.941Z,16.57
2019-04-14T04:56:20.518Z,20.27
2019-04-14T05:01:27.386Z,17.07
2019-04-14T05:06:50.643Z,17.00
2019-04-14T05:12:04.456Z,17.77
2019-04-14T05:17:10.244Z,19.67
2019-04-14T05:22:17.808Z,15.13
2019-04-14T05:27:25.319Z,18.85
2019-04-14T05:32:31.038Z,15.87
2019-04-14T05:37:37.754Z,17.20
2019-04-14T05:42:43.333Z,17.10
2019-04-14T05:47:50.021Z,20.70
2019-04-14T05:52:55.855Z,17.47
2019-04-14T05:58:03.523Z,20.33
2019-04-14T06:03:10.192Z,19.20
2019-04-14T06:08:15.845Z,18.90
2019-04-14T06:13:21.362Z,21.20
2019-04-14T06:18:26.879Z,20.73
2019-04-14T06:23:32.469Z,18.67
2019-04-14T06:28:38.034Z,17.73
2019-04-14T06:33:51.997Z,18.23
2019-04-14T06:39:04.348Z,18.87
2019-04-14T06:44:09.869Z,19.00
2019-04-14T06:49:15.286Z,20.47
2019-04-14T06:54:20.952Z,18.33
2019-04-14T06:59:26.429Z,19.17
2019-04-14T07:04:32.032Z,20.30
2019-04-14T07:09:37.632Z,18.03
2019-04-14T07:14:43.298Z,19.33
2019-04-14T07:20:01.018Z,19.30
2019-04-14T07:24:55.946Z,19.53
2019-04-14T07:30:10.043Z,22.67
2019-04-14T07:35:25.527Z,21.03
2019-04-14T07:40:45.735Z,23.85
2019-04-14T07:45:57.748Z,21.67
2019-04-14T07:51:12.082Z,23.53
2019-04-14T07:56:26.959Z,21.07
2019-04-14T08:01:41.541Z,24.17
2019-04-14T08:06:50.401Z,25.70
2019-04-14T08:11:56.215Z,23.00
2019-04-14T08:17:01.945Z,25.80
2019-04-14T08:22:07.757Z,24.37
2019-04-14T08:27:13.476Z,22.50
2019-04-14T08:32:19.119Z,21.67
2019-04-14T08:37:24.820Z,22.27
2019-04-14T08:42:42.751Z,21.68
2019-04-14T08:47:53.879Z,22.67
2019-04-14T08:53:04.867Z,22.80
2019-04-14T08:58:22.316Z,22.23
2019-04-14T09:03:36.168Z,22.42
2019-04-14T09:08:54.458Z,22.93
2019-04-14T09:14:00.124Z,22.33
2019-04-14T09:19:07.931Z,20.70
2019-04-14T09:24:13.218Z,21.57
2019-04-14T09:29:18.837Z,20.17
2019-04-14T09:34:24.560Z,21.83
2019-04-14T09:39:30.278Z,21.95
2019-04-14T09:44:36.000Z,21.85
2019-04-14T09:49:41.882Z,19.77
2019-04-14T09:54:47.606Z,20.10
2019-04-14T09:59:53.259Z,21.53
2019-04-14T10:04:59.019Z,22.67
2019-04-14T10:10:04.808Z,22.30
2019-04-14T10:15:10.599Z,22.20
2019-04-14T10:20:16.375Z,22.67
2019-04-14T10:25:22.101Z,23.47
2019-04-14T10:30:27.786Z,21.43
2019-04-14T10:35:33.275Z,21.70
2019-04-14T10:40:38.824Z,21.60
2019-04-14T10:45:44.490Z,21.13
2019-04-14T10:50:50.131Z,21.40
2019-04-14T10:55:55.794Z,22.60
2019-04-14T11:01:01.711Z,24.37
2019-04-14T11:06:16.033Z,23.73
2019-04-14T11:11:21.768Z,22.93
2019-04-14T11:16:27.754Z,21.30
2019-04-14T11:21:42.492Z,24.02
2019-04-14T11:26:40.514Z,24.90
2019-04-14T11:31:54.051Z,26.23
2019-04-14T11:37:08.098Z,23.50
2019-04-14T11:42:14.065Z,22.97
2019-04-14T11:47:19.696Z,24.47
2019-04-14T11:52:25.345Z,21.30
2019-04-14T11:57:31.504Z,21.47
2019-04-14T12:02:51.985Z,22.17
2019-04-14T12:08:07.191Z,18.93
2019-04-14T12:13:12.961Z,22.50
2019-04-14T12:18:18.631Z,18.97
2019-04-14T12:23:24.811Z,18.80
2019-04-14T12:28:30.373Z,21.00
2019-04-14T12:33:36.028Z,22.07
2019-04-14T12:38:41.811Z,22.13
2019-04-14T12:43:58.152Z,18.87
2019-04-14T12:49:09.292Z,23.13
2019-04-14T12:54:14.772Z,23.70
2019-04-14T12:59:23.384Z,21.90
2019-04-14T13:04:30.941Z,18.13
2019-04-14T13:09:36.624Z,17.73
2019-04-14T13:14:42.461Z,19.17
2019-04-14T13:19:48.391Z,17.83
2019-04-14T13:24:54.153Z,18.53
2019-04-14T13:30:00.042Z,19.43
2019-04-14T13:35:06.062Z,20.20
2019-04-14T13:40:12.190Z,20.23
2019-04-14T13:45:17.950Z,21.37
2019-04-14T13:50:23.610Z,22.63
2019-04-14T13:55:29.276Z,20.77
2019-04-14T14:00:35.067Z,22.30
2019-04-14T14:05:43.438Z,23.67
2019-04-14T14:10:47.876Z,26.63
2019-04-14T14:16:02.078Z,22.33
2019-04-14T14:21:17.657Z,24.77
2019-04-14T14:26:26.717Z,26.97
2019-04-14T14:31:32.502Z,25.10
2019-04-14T14:36:38.096Z,23.85
2019-04-14T14:41:43.817Z,24.30
2019-04-14T14:46:56.855Z,25.33
2019-04-14T14:52:07.457Z,22.37
2019-04-14T14:57:13.095Z,25.27
2019-04-14T15:02:18.746Z,22.83
2019-04-14T15:07:25.162Z,24.50
2019-04-14T15:12:30.827Z,22.97
2019-04-14T15:17:36.507Z,25.95
2019-04-14T15:22:42.165Z,27.57
2019-04-14T15:27:47.727Z,26.13
2019-04-14T15:32:53.330Z,26.37
2019-04-14T15:37:59.216Z,29.40
2019-04-14T15:43:04.926Z,24.63
2019-04-14T15:48:10.443Z,25.80
2019-04-14T15:53:16.086Z,27.33
2019-04-14T15:58:31.708Z,26.70
2019-04-14T16:03:46.110Z,24.10
2019-04-14T16:09:02.063Z,21.47
2019-04-14T16:14:17.056Z,19.23
2019-04-14T16:19:31.064Z,19.40
2019-04-14T16:24:37.130Z,16.57
2019-04-14T16:29:52.063Z,14.73
2019-04-14T16:35:00.501Z,12.57
2019-04-14T16:40:07.385Z,12.37
2019-04-14T16:45:13.741Z,12.10
2019-04-14T16:50:20.462Z,14.07
2019-04-14T16:55:44.843Z,14.17
2019-04-14T17:00:57.386Z,12.77
2019-04-14T17:06:03.065Z,11.40
2019-04-14T17:11:08.842Z,12.23
2019-04-14T17:16:26.319Z,10.50
2019-04-14T17:21:35.528Z,13.03
2019-04-14T17:26:53.366Z,12.25
2019-04-14T17:32:05.809Z,11.47
2019-04-14T17:37:20.658Z,10.57
2019-04-14T17:42:34.142Z,10.23
2019-04-14T17:53:23.108Z,9.30
2019-04-14T18:03:48.942Z,9.30
2019-04-14T18:09:03.145Z,9.67
2019-04-14T18:14:17.524Z,10.10
2019-04-14T18:19:30.102Z,9.30
2019-04-14T18:24:42.097Z,11.78
2019-04-14T18:29:51.876Z,8.30
2019-04-14T18:35:06.873Z,11.03
2019-04-14T18:40:17.299Z,8.50
2019-04-14T18:45:30.411Z,9.73
2019-04-14T18:50:56.341Z,9.58
2019-04-14T18:56:08.143Z,9.80
2019-04-14T19:01:18.076Z,10.90
2019-04-14T19:06:23.765Z,9.07
2019-04-14T19:11:48.077Z,9.67
2019-04-14T19:16:58.546Z,8.73
2019-04-14T19:22:04.131Z,9.13
2019-04-14T19:27:12.621Z,10.97
2019-04-14T19:32:18.205Z,10.60
2019-04-14T19:37:23.902Z,11.45
2019-04-14T19:42:29.549Z,15.67
2019-04-14T19:47:35.302Z,15.87
2019-04-14T19:52:41.004Z,14.00
2019-04-14T19:57:46.464Z,15.97
2019-04-14T20:02:52.165Z,16.40
2019-04-14T20:07:58.121Z,17.00
2019-04-14T20:13:04.325Z,17.87
2019-04-14T20:18:23.210Z,15.73
2019-04-14T20:23:37.678Z,18.07
2019-04-14T20:28:48.377Z,18.23
2019-04-14T20:33:54.807Z,18.97
2019-04-14T20:39:00.402Z,19.97
2019-04-14T20:44:06.582Z,18.70
2019-04-14T20:49:12.329Z,17.33
2019-04-14T20:54:18.113Z,21.20
2019-04-14T20:59:23.805Z,21.60
2019-04-14T21:04:38.804Z,18.40
2019-04-14T21:09:49.669Z,16.77
2019-04-14T21:15:01.399Z,17.43
2019-04-14T21:20:18.703Z,19.03
2019-04-14T21:25:31.642Z,19.10
2019-04-14T21:30:45.339Z,18.10
2019-04-14T21:35:57.224Z,18.57
2019-04-14T21:41:08.063Z,19.50
2019-04-14T21:46:13.942Z,20.27
2019-04-14T21:51:19.565Z,18.00
2019-04-14T21:56:27.082Z,18.20
2019-04-14T22:01:46.008Z,18.50
2019-04-14T22:06:53.222Z,17.07
2019-04-14T22:12:02.296Z,16.80
2019-04-14T22:17:08.122Z,16.73
2019-04-14T22:22:13.650Z,15.83
2019-04-14T22:27:19.676Z,17.13
2019-04-14T22:32:26.005Z,18.40
2019-04-14T22:37:31.382Z,18.03
2019-04-14T22:42:37.063Z,19.87
2019-04-14T22:47:42.462Z,17.17
2019-04-14T22:52:48.107Z,20.00
2019-04-14T22:57:53.785Z,21.97
2019-04-14T23:03:10.269Z,18.90
2019-04-14T23:08:25.426Z,20.00
2019-04-14T23:13:38.645Z,21.68
2019-04-14T23:18:50.375Z,21.43
2019-04-14T23:24:04.971Z,19.50
2019-04-14T23:29:10.749Z,24.17
2019-04-14T23:34:16.262Z,21.07
2019-04-14T23:39:22.060Z,19.33
2019-04-14T23:44:27.945Z,21.70
2019-04-14T23:49:33.580Z,18.57
2019-04-14T23:54:39.310Z,19.90
2019-04-14T23:59:44.870Z,21.70
